createdAt,value
2018-01-15T00:02:03.320Z,37.00
2018-01-15T00:04:34.686Z,38.60
2018-01-15T00:07:04.197Z,34.20
2018-01-15T00:09:35.205Z,41.33
2018-01-15T00:12:05.578Z,36.57
2018-01-15T00:14:34.841Z,32.33
2018-01-15T00:17:04.597Z,91.47
2018-01-15T00:19:33.996Z,36.30
2018-01-15T00:22:03.690Z,36.17
2018-01-15T00:24:32.771Z,38.93
2018-01-15T00:27:02.195Z,41.20
2018-01-15T00:29:31.311Z,41.77
2018-01-15T00:32:00.472Z,38.13
2018-01-15T00:34:30.972Z,40.67
2018-01-15T00:37:00.194Z,40.90
2018-01-15T00:39:29.323Z,36.70
2018-01-15T00:41:58.498Z,38.93
2018-01-15T00:44:27.728Z,33.83
2018-01-15T00:46:57.232Z,42.43
2018-01-15T00:49:26.362Z,36.20
2018-01-15T00:51:55.794Z,34.57
2018-01-15T00:54:25.394Z,32.40
2018-01-15T00:56:54.764Z,37.70
2018-01-15T00:59:23.863Z,35.60
2018-01-15T01:01:53.277Z,39.43
2018-01-15T01:04:22.362Z,41.53
2018-01-15T01:06:51.499Z,37.97
2018-01-15T01:09:20.895Z,51.13
2018-01-15T01:11:50.153Z,40.23
2018-01-15T01:14:20.107Z,46.07
2018-01-15T01:16:49.588Z,39.60
2018-01-15T01:19:18.693Z,45.47
2018-01-15T01:21:48.558Z,33.53
2018-01-15T01:24:18.025Z,34.37
2018-01-15T01:26:47.141Z,33.37
2018-01-15T01:29:16.624Z,33.80
2018-01-15T01:31:46.022Z,33.53
2018-01-15T01:34:15.262Z,34.10
2018-01-15T01:36:44.350Z,30.57
2018-01-15T01:39:13.858Z,39.00
2018-01-15T01:41:43.011Z,43.30
2018-01-15T01:44:12.166Z,35.20
2018-01-15T01:46:41.571Z,38.40
2018-01-15T01:49:10.672Z,32.03
2018-01-15T01:51:39.795Z,40.47
2018-01-15T01:54:09.302Z,37.47
2018-01-15T01:56:38.405Z,41.97
2018-01-15T01:59:07.550Z,40.07
2018-01-15T02:01:36.985Z,43.67
2018-01-15T02:04:07.349Z,38.50
2018-01-15T02:06:36.740Z,36.90
2018-01-15T02:09:06.628Z,43.37
2018-01-15T02:11:35.762Z,45.90
2018-01-15T02:14:05.790Z,39.17
2018-01-15T02:16:35.011Z,44.60
2018-01-15T02:19:04.148Z,46.73
2018-01-15T02:21:33.849Z,39.13
2018-01-15T02:24:04.032Z,38.23
2018-01-15T02:26:33.383Z,40.47
2018-01-15T02:29:02.813Z,41.00
2018-01-15T02:31:31.985Z,31.63
2018-01-15T02:34:01.867Z,35.23
2018-01-15T02:36:31.025Z,35.10
2018-01-15T02:39:00.139Z,37.70
2018-01-15T02:41:29.531Z,51.50
2018-01-15T02:43:58.643Z,36.43
2018-01-15T02:46:27.734Z,34.37
2018-01-15T02:48:57.140Z,38.17
2018-01-15T02:51:26.270Z,39.07
2018-01-15T02:53:55.384Z,40.63
2018-01-15T02:56:24.785Z,40.57
2018-01-15T02:58:53.910Z,34.03
2018-01-15T03:01:27.212Z,40.13
2018-01-15T03:03:56.719Z,39.80
2018-01-15T03:06:25.823Z,36.20
2018-01-15T03:08:55.367Z,40.93
2018-01-15T03:11:24.834Z,40.30
2018-01-15T03:13:53.933Z,44.03
2018-01-15T03:16:23.034Z,39.13
2018-01-15T03:18:52.139Z,42.07
2018-01-15T03:21:21.667Z,35.83
2018-01-15T03:23:51.080Z,40.03
2018-01-15T03:26:20.206Z,41.93
2018-01-15T03:28:49.359Z,43.53
2018-01-15T03:31:18.750Z,42.70
2018-01-15T03:33:47.858Z,40.50
2018-01-15T03:36:16.969Z,42.53
2018-01-15T03:38:46.396Z,50.03
2018-01-15T03:41:15.550Z,48.50
2018-01-15T03:43:44.700Z,45.40
2018-01-15T03:46:14.300Z,50.53
2018-01-15T03:48:43.417Z,48.57
2018-01-15T03:51:12.582Z,47.97
2018-01-15T03:53:41.998Z,48.60
2018-01-15T03:56:11.129Z,48.40
2018-01-15T03:58:40.212Z,50.23
2018-01-15T04:01:09.334Z,41.53
2018-01-15T04:03:38.423Z,46.60
2018-01-15T04:06:07.822Z,43.70
2018-01-15T04:08:36.932Z,44.70
2018-01-15T04:11:06.035Z,40.10
2018-01-15T04:13:35.472Z,44.97
2018-01-15T04:16:05.373Z,45.20
2018-01-15T04:18:34.503Z,41.73
2018-01-15T04:21:04.211Z,52.40
2018-01-15T04:23:33.387Z,44.43
2018-01-15T04:26:03.247Z,44.13
2018-01-15T04:28:32.637Z,44.57
2018-01-15T04:31:01.976Z,39.03
2018-01-15T04:33:31.066Z,43.10
2018-01-15T04:36:00.604Z,36.23
2018-01-15T04:38:29.682Z,42.07
2018-01-15T04:41:00.034Z,40.77
2018-01-15T04:43:29.451Z,45.63
2018-01-15T04:45:58.577Z,43.30
2018-01-15T04:48:27.779Z,40.20
2018-01-15T04:50:57.452Z,44.80
2018-01-15T04:53:26.633Z,46.77
2018-01-15T04:55:57.142Z,42.20
2018-01-15T04:58:26.333Z,45.50
2018-01-15T05:00:55.637Z,48.33
2018-01-15T05:03:24.832Z,43.63
2018-01-15T05:05:54.210Z,43.20
2018-01-15T05:08:28.858Z,48.87
2018-01-15T05:10:58.071Z,39.57
2018-01-15T05:13:27.305Z,46.70
2018-01-15T05:15:56.896Z,57.43
2018-01-15T05:18:26.093Z,50.53
2018-01-15T05:20:55.202Z,46.97
2018-01-15T05:23:24.694Z,45.87
2018-01-15T05:25:53.839Z,52.37
2018-01-15T05:28:22.981Z,48.70
2018-01-15T05:30:53.452Z,44.47
2018-01-15T05:33:22.612Z,51.90
2018-01-15T05:35:51.759Z,44.33
2018-01-15T05:38:21.636Z,47.07
2018-01-15T05:40:51.246Z,39.73
2018-01-15T05:43:20.402Z,43.77
2018-01-15T05:45:51.692Z,43.00
2018-01-15T05:48:21.012Z,41.13
2018-01-15T05:50:51.137Z,47.57
2018-01-15T05:53:20.604Z,46.00
2018-01-15T05:55:49.926Z,46.57
2018-01-15T05:58:19.115Z,43.40
2018-01-15T06:00:50.885Z,48.77
2018-01-15T06:03:20.079Z,44.47
2018-01-15T06:05:49.360Z,43.00
2018-01-15T06:08:18.474Z,48.50
2018-01-15T06:10:47.674Z,48.00
2018-01-15T06:13:17.766Z,43.97
2018-01-15T06:15:46.967Z,49.07
2018-01-15T06:18:16.141Z,44.90
2018-01-15T06:20:46.605Z,49.80
2018-01-15T06:23:15.999Z,44.00
2018-01-15T06:25:45.176Z,47.43
2018-01-15T06:28:14.763Z,42.50
2018-01-15T06:30:44.105Z,43.33
2018-01-15T06:33:13.352Z,59.00
2018-01-15T06:35:42.531Z,111.33
2018-01-15T06:38:11.830Z,40.87
2018-01-15T06:40:41.261Z,42.47
2018-01-15T06:43:10.379Z,42.33
2018-01-15T06:45:39.656Z,43.60
2018-01-15T06:48:09.558Z,42.40
2018-01-15T06:50:38.730Z,41.47
2018-01-15T06:53:08.152Z,46.03
2018-01-15T06:55:37.306Z,44.03
2018-01-15T06:58:06.602Z,40.23
2018-01-15T07:00:35.757Z,44.83
2018-01-15T07:03:05.183Z,40.73
2018-01-15T07:05:34.358Z,45.30
2018-01-15T07:08:04.730Z,44.27
2018-01-15T07:10:33.885Z,43.73
2018-01-15T07:13:04.263Z,42.30
2018-01-15T07:15:33.730Z,48.77
2018-01-15T07:18:04.195Z,52.73
2018-01-15T07:20:33.411Z,41.07
2018-01-15T07:23:03.138Z,43.23
2018-01-15T07:25:32.259Z,41.60
2018-01-15T07:28:01.798Z,45.57
2018-01-15T07:30:31.250Z,44.83
2018-01-15T07:33:02.051Z,53.80
2018-01-15T07:35:31.200Z,44.10
2018-01-15T07:38:02.866Z,41.37
2018-01-15T07:40:32.114Z,46.87
2018-01-15T07:43:02.100Z,47.40
2018-01-15T07:45:31.552Z,52.63
2018-01-15T07:48:01.060Z,47.50
2018-01-15T07:50:30.219Z,44.77
2018-01-15T07:52:59.340Z,52.20
2018-01-15T07:55:28.503Z,47.97
2018-01-15T07:57:58.857Z,48.77
2018-01-15T08:00:27.951Z,50.83
2018-01-15T08:02:57.081Z,44.37
2018-01-15T08:05:26.596Z,49.47
2018-01-15T08:07:55.716Z,45.37
2018-01-15T08:10:24.896Z,45.90
2018-01-15T08:12:54.301Z,46.57
2018-01-15T08:15:23.493Z,46.60
2018-01-15T08:17:53.538Z,53.27
2018-01-15T08:20:22.934Z,48.87
2018-01-15T08:22:52.057Z,47.93
2018-01-15T08:25:21.510Z,53.83
2018-01-15T08:27:50.714Z,45.47
2018-01-15T08:30:19.815Z,43.70
2018-01-15T08:32:49.053Z,44.43
2018-01-15T08:35:18.198Z,49.07
2018-01-15T08:37:47.657Z,51.30
2018-01-15T08:40:17.338Z,47.33
2018-01-15T08:42:46.455Z,49.83
2018-01-15T08:45:15.595Z,45.50
2018-01-15T08:47:44.758Z,43.03
2018-01-15T08:50:14.238Z,47.20
2018-01-15T08:52:43.368Z,48.60
2018-01-15T08:55:12.555Z,54.80
2018-01-15T08:57:42.063Z,48.20
2018-01-15T09:00:11.303Z,50.20
2018-01-15T09:02:40.477Z,51.17
2018-01-15T09:05:11.397Z,52.63
2018-01-15T09:07:40.703Z,47.60
2018-01-15T09:10:09.895Z,53.57
2018-01-15T09:12:39.377Z,55.13
2018-01-15T09:15:08.508Z,48.97
2018-01-15T09:17:38.564Z,52.33
2018-01-15T09:20:07.993Z,49.67
2018-01-15T09:22:37.138Z,49.60
2018-01-15T09:25:06.266Z,48.17
2018-01-15T09:27:35.720Z,50.60
2018-01-15T09:30:06.669Z,41.63
2018-01-15T09:32:35.792Z,54.40
2018-01-15T09:35:05.510Z,47.90
2018-01-15T09:37:34.630Z,48.33
2018-01-15T09:40:05.561Z,42.80
2018-01-15T09:42:34.982Z,50.00
2018-01-15T09:45:05.005Z,47.70
2018-01-15T09:47:34.148Z,44.77
2018-01-15T09:50:04.470Z,49.77
2018-01-15T09:52:33.694Z,48.37
2018-01-15T09:55:04.147Z,49.00
2018-01-15T09:57:33.578Z,40.00
2018-01-15T10:00:04.680Z,48.93
2018-01-15T10:02:33.816Z,49.43
2018-01-15T10:05:03.907Z,47.40
2018-01-15T10:07:33.075Z,46.00
2018-01-15T10:10:03.991Z,45.50
2018-01-15T10:12:33.410Z,42.00
2018-01-15T10:15:02.847Z,44.70
2018-01-15T10:17:31.977Z,45.40
2018-01-15T10:20:02.791Z,49.67
2018-01-15T10:22:31.945Z,45.87
2018-01-15T10:25:01.467Z,44.50
2018-01-15T10:27:30.892Z,47.33
2018-01-15T10:30:00.085Z,55.83
2018-01-15T10:32:29.226Z,50.33
2018-01-15T10:34:58.687Z,44.67
2018-01-15T10:37:27.859Z,40.33
2018-01-15T10:39:57.003Z,45.93
2018-01-15T10:42:26.552Z,44.60
2018-01-15T10:44:55.675Z,48.73
2018-01-15T10:47:24.846Z,51.57
2018-01-15T10:49:54.466Z,45.80
2018-01-15T10:52:23.628Z,47.53
2018-01-15T10:54:52.848Z,41.57
2018-01-15T10:57:22.350Z,50.73
2018-01-15T10:59:52.945Z,50.47
2018-01-15T11:02:22.066Z,46.80
2018-01-15T11:04:51.636Z,51.50
2018-01-15T11:07:20.783Z,42.70
2018-01-15T11:09:50.694Z,44.47
2018-01-15T11:12:20.115Z,40.80
2018-01-15T11:14:49.358Z,42.83
2018-01-15T11:17:18.678Z,38.97
2018-01-15T11:19:48.346Z,37.63
2018-01-15T11:22:17.504Z,54.33
2018-01-15T11:24:46.651Z,40.23
2018-01-15T11:27:16.063Z,58.00
2018-01-15T11:29:45.188Z,41.17
2018-01-15T11:32:14.314Z,43.23
2018-01-15T11:34:43.740Z,44.40
2018-01-15T11:37:12.927Z,42.20
2018-01-15T11:39:42.118Z,41.07
2018-01-15T11:42:11.278Z,40.70
2018-01-15T11:44:40.570Z,42.03
2018-01-15T11:47:09.774Z,45.13
2018-01-15T11:49:39.177Z,36.47
2018-01-15T11:52:08.446Z,39.10
2018-01-15T11:54:37.569Z,37.93
2018-01-15T11:57:07.017Z,38.53
2018-01-15T11:59:36.214Z,39.00
2018-01-15T12:02:06.387Z,43.63
2018-01-15T12:04:35.825Z,37.47
2018-01-15T12:07:05.466Z,36.10
2018-01-15T12:09:34.596Z,41.10
2018-01-15T12:12:04.945Z,38.57
2018-01-15T12:14:34.083Z,48.77
2018-01-15T12:17:03.454Z,36.97
2018-01-15T12:19:32.940Z,35.07
2018-01-15T12:22:02.805Z,42.97
2018-01-15T12:24:31.988Z,40.17
2018-01-15T12:27:04.039Z,39.87
2018-01-15T12:29:33.188Z,43.10
2018-01-15T12:32:03.148Z,39.57
2018-01-15T12:34:32.638Z,36.50
2018-01-15T12:37:02.118Z,42.07
2018-01-15T12:39:31.358Z,40.17
2018-01-15T12:42:02.471Z,43.40
2018-01-15T12:44:31.585Z,36.13
2018-01-15T12:47:01.956Z,37.50
2018-01-15T12:49:31.167Z,40.93
2018-01-15T12:52:00.306Z,42.17
2018-01-15T12:54:29.452Z,39.33
2018-01-15T12:57:00.176Z,41.43
2018-01-15T12:59:29.715Z,41.30
2018-01-15T13:01:59.706Z,35.67
2018-01-15T13:04:28.903Z,36.47
2018-01-15T13:06:58.951Z,36.67
2018-01-15T13:09:28.108Z,44.40
2018-01-15T13:11:57.570Z,36.00
2018-01-15T13:14:26.770Z,36.10
2018-01-15T13:16:56.987Z,32.77
2018-01-15T13:19:26.539Z,41.23
2018-01-15T13:21:55.714Z,43.43
2018-01-15T13:24:24.877Z,41.67
2018-01-15T13:26:55.357Z,33.07
2018-01-15T13:29:24.568Z,38.67
2018-01-15T13:31:53.708Z,43.40
2018-01-15T13:34:23.125Z,37.90
2018-01-15T13:36:52.285Z,36.33
2018-01-15T13:39:21.414Z,39.47
2018-01-15T13:41:51.950Z,37.40
2018-01-15T13:44:21.067Z,28.13
2018-01-15T13:46:51.679Z,37.10
2018-01-15T13:49:21.251Z,40.17
2018-01-15T13:51:52.221Z,38.00
2018-01-15T13:54:21.426Z,42.37
2018-01-15T13:56:52.020Z,34.47
2018-01-15T13:59:21.190Z,38.60
2018-01-15T14:01:52.050Z,44.10
2018-01-15T14:04:22.139Z,35.93
2018-01-15T14:06:51.710Z,32.67
2018-01-15T14:09:21.270Z,37.63
2018-01-15T14:11:50.997Z,37.07
2018-01-15T14:14:20.417Z,36.70
2018-01-15T14:16:50.759Z,36.03
2018-01-15T14:19:21.772Z,38.10
2018-01-15T14:21:51.819Z,35.90
2018-01-15T14:24:21.556Z,28.77
2018-01-15T14:26:51.750Z,33.97
2018-01-15T14:29:21.234Z,32.37
2018-01-15T14:31:50.864Z,36.27
2018-01-15T14:34:20.474Z,33.63
2018-01-15T14:36:49.792Z,31.77
2018-01-15T14:39:19.847Z,28.13
2018-01-15T14:41:49.835Z,40.20
2018-01-15T14:44:19.231Z,30.10
2018-01-15T14:46:48.941Z,64.97
2018-01-15T14:49:18.664Z,38.20
2018-01-15T14:51:48.094Z,39.23
2018-01-15T14:54:18.160Z,32.10
2018-01-15T14:56:47.604Z,33.37
2018-01-15T14:59:16.960Z,32.50
2018-01-15T15:01:46.502Z,33.17
2018-01-15T15:04:16.045Z,32.17
2018-01-15T15:06:45.165Z,30.37
2018-01-15T15:09:14.636Z,32.07
2018-01-15T15:11:43.995Z,34.87
2018-01-15T15:14:13.117Z,30.50
2018-01-15T15:16:44.274Z,37.87
2018-01-15T15:19:14.778Z,29.53
2018-01-15T15:21:44.581Z,28.93
2018-01-15T15:24:14.912Z,31.30
2018-01-15T15:26:44.729Z,27.30
2018-01-15T15:29:14.535Z,32.60
2018-01-15T15:31:44.769Z,28.33
2018-01-15T15:34:15.433Z,28.87
2018-01-15T15:36:45.421Z,26.03
2018-01-15T15:39:15.612Z,30.87
2018-01-15T15:41:45.611Z,28.73
2018-01-15T15:44:15.281Z,34.83
2018-01-15T15:46:44.941Z,34.37
2018-01-15T15:49:14.902Z,29.27
2018-01-15T15:51:44.347Z,29.73
2018-01-15T15:54:15.782Z,25.90
2018-01-15T15:56:46.394Z,33.73
2018-01-15T15:59:17.068Z,28.83
2018-01-15T16:01:46.323Z,30.07
2018-01-15T16:04:15.727Z,34.23
2018-01-15T16:06:45.206Z,29.10
2018-01-15T16:09:14.587Z,32.00
2018-01-15T16:11:43.741Z,30.80
2018-01-15T16:14:13.194Z,33.20
2018-01-15T16:16:42.512Z,31.10
2018-01-15T16:19:12.788Z,37.93
2018-01-15T16:21:43.280Z,35.30
2018-01-15T16:24:13.222Z,32.10
2018-01-15T16:26:42.376Z,36.37
2018-01-15T16:29:11.875Z,44.63
2018-01-15T16:31:41.124Z,30.27
2018-01-15T16:34:10.348Z,33.43
2018-01-15T16:36:39.559Z,27.60
2018-01-15T16:39:08.733Z,37.90
2018-01-15T16:41:38.334Z,32.00
2018-01-15T16:44:08.791Z,68.53
2018-01-15T16:46:38.399Z,36.00
2018-01-15T16:49:08.063Z,35.07
2018-01-15T16:51:37.633Z,27.10
2018-01-15T16:54:07.116Z,29.47
2018-01-15T16:56:36.355Z,33.17
2018-01-15T16:59:06.240Z,30.03
2018-01-15T17:01:35.878Z,32.40
2018-01-15T17:04:06.774Z,30.13
2018-01-15T17:06:36.151Z,28.50
2018-01-15T17:09:05.747Z,37.23
2018-01-15T17:11:35.019Z,26.43
2018-01-15T17:14:05.332Z,33.17
2018-01-15T17:16:34.592Z,26.77
2018-01-15T17:19:05.094Z,29.63
2018-01-15T17:21:36.752Z,27.90
2018-01-15T17:24:06.870Z,29.77
2018-01-15T17:26:35.996Z,35.93
2018-01-15T17:29:05.532Z,32.13
2018-01-15T17:31:34.853Z,29.90
2018-01-15T17:34:05.548Z,28.17
2018-01-15T17:36:34.858Z,32.07
2018-01-15T17:39:05.828Z,28.13
2018-01-15T17:41:35.150Z,26.50
2018-01-15T17:44:06.825Z,31.83
2018-01-15T17:46:37.305Z,31.87
2018-01-15T17:49:06.659Z,29.73
2018-01-15T17:51:36.193Z,27.70
2018-01-15T17:54:06.249Z,29.47
2018-01-15T17:56:35.531Z,25.20
2018-01-15T17:59:05.101Z,27.40
2018-01-15T18:01:35.105Z,20.80
2018-01-15T18:04:05.286Z,20.60
2018-01-15T18:06:34.569Z,25.17
2018-01-15T18:09:05.506Z,20.47
2018-01-15T18:11:34.862Z,22.30
2018-01-15T18:14:07.382Z,20.80
2018-01-15T18:16:37.357Z,16.37
2018-01-15T18:19:06.716Z,17.83
2018-01-15T18:21:36.282Z,13.97
2018-01-15T18:24:11.824Z,22.30
2018-01-15T18:26:45.438Z,18.80
2018-01-15T18:29:14.927Z,142.87
2018-01-15T18:31:44.092Z,20.50
2018-01-15T18:34:16.935Z,20.90
2018-01-15T18:36:46.782Z,21.23
2018-01-15T18:39:16.005Z,20.63
2018-01-15T18:41:45.182Z,21.13
2018-01-15T18:44:15.856Z,14.70
2018-01-15T18:46:45.034Z,15.70
2018-01-15T18:49:14.727Z,15.93
2018-01-15T18:51:44.256Z,15.47
2018-01-15T18:54:19.068Z,24.37
2018-01-15T18:56:54.958Z,16.03
2018-01-15T18:59:31.433Z,16.97
2018-01-15T19:02:08.684Z,14.93
2018-01-15T19:04:38.307Z,15.80
2018-01-15T19:07:07.504Z,10.70
2018-01-15T19:09:36.631Z,16.83
2018-01-15T19:12:06.248Z,13.83
2018-01-15T19:14:35.680Z,12.43
2018-01-15T19:17:05.277Z,13.10
2018-01-15T19:19:34.417Z,13.07
2018-01-15T19:22:07.287Z,10.63
2018-01-15T19:24:36.471Z,10.63
2018-01-15T19:27:05.857Z,18.90
2018-01-15T19:29:35.122Z,9.73
2018-01-15T19:32:06.068Z,9.40
2018-01-15T19:34:35.383Z,11.87
2018-01-15T19:37:06.317Z,12.60
2018-01-15T19:39:35.563Z,10.90
2018-01-15T19:42:05.552Z,11.17
2018-01-15T19:44:39.066Z,7.67
2018-01-15T19:47:13.267Z,7.13
2018-01-15T19:50:49.778Z,5.90
2018-01-15T19:55:25.481Z,6.30
2018-01-15T19:57:59.617Z,9.87
2018-01-15T20:02:39.226Z,8.27
2018-01-15T20:05:13.653Z,7.97
2018-01-15T20:07:47.715Z,7.03
2018-01-15T20:10:52.241Z,7.00
2018-01-15T20:13:21.654Z,6.27
2018-01-15T20:15:51.299Z,6.33
2018-01-15T20:18:20.458Z,8.10
2018-01-15T20:20:49.677Z,11.17
2018-01-15T20:23:18.936Z,5.47
2018-01-15T20:25:48.024Z,6.97
2018-01-15T20:28:17.201Z,5.47
2018-01-15T20:30:46.607Z,5.90
2018-01-15T20:33:16.295Z,5.30
2018-01-15T20:35:45.427Z,8.37
2018-01-15T20:38:15.135Z,5.63
2018-01-15T20:40:44.375Z,8.50
2018-01-15T20:43:13.606Z,6.23
2018-01-15T20:45:43.081Z,7.60
2018-01-15T20:48:12.190Z,5.50
2018-01-15T20:50:51.383Z,7.30
2018-01-15T20:53:21.277Z,5.87
2018-01-15T20:55:50.457Z,5.83
2018-01-15T20:58:19.601Z,5.53
2018-01-15T21:00:49.735Z,5.80
2018-01-15T21:03:18.867Z,6.00
2018-01-15T21:05:48.174Z,5.37
2018-01-15T21:08:17.870Z,8.43
2018-01-15T21:10:47.077Z,4.90
2018-01-15T21:13:17.308Z,8.60
2018-01-15T21:15:46.448Z,11.33
2018-01-15T21:18:15.602Z,5.77
2018-01-15T21:20:44.691Z,5.17
2018-01-15T21:23:14.167Z,5.93
2018-01-15T21:25:43.379Z,4.93
2018-01-15T21:28:12.672Z,5.23
2018-01-15T21:30:42.495Z,5.13
2018-01-15T21:33:12.049Z,6.57
2018-01-15T21:36:00.201Z,5.20
2018-01-15T21:38:32.514Z,5.47
2018-01-15T21:41:02.525Z,10.37
2018-01-15T21:43:37.645Z,3.90
2018-01-15T21:46:07.288Z,4.63
2018-01-15T21:48:37.902Z,5.23
2018-01-15T21:51:16.294Z,5.47
2018-01-15T21:53:45.530Z,4.53
2018-01-15T21:56:22.283Z,3.57
2018-01-15T21:58:51.797Z,5.30
2018-01-15T22:01:27.313Z,4.40
2018-01-15T22:03:59.794Z,6.97
2018-01-15T22:06:30.532Z,5.53
2018-01-15T22:09:07.229Z,6.67
2018-01-15T22:11:42.473Z,7.33
2018-01-15T22:14:17.978Z,6.30
2018-01-15T22:16:47.180Z,6.27
2018-01-15T22:19:18.880Z,6.00
2018-01-15T22:21:48.142Z,9.73
2018-01-15T22:24:17.281Z,5.30
2018-01-15T22:26:46.915Z,7.63
2018-01-15T22:29:16.055Z,4.07
2018-01-15T22:31:45.205Z,5.83
2018-01-15T22:34:14.724Z,3.43
2018-01-15T22:36:43.935Z,4.43
2018-01-15T22:39:13.107Z,4.40
2018-01-15T22:41:42.770Z,3.03
2018-01-15T22:44:12.026Z,4.30
2018-01-15T22:46:41.199Z,4.43
2018-01-15T22:49:10.919Z,7.70
2018-01-15T22:51:40.178Z,3.53
2018-01-15T22:54:09.425Z,5.23
2018-01-15T22:56:38.842Z,4.63
2018-01-15T22:59:08.798Z,4.10
2018-01-15T23:01:37.936Z,3.83
2018-01-15T23:04:07.362Z,3.20
2018-01-15T23:06:36.510Z,5.93
2018-01-15T23:09:06.000Z,2.43
2018-01-15T23:11:35.167Z,2.60
2018-01-15T23:14:05.259Z,1.90
2018-01-15T23:16:34.395Z,2.10
2018-01-15T23:19:04.654Z,2.20
2018-01-15T23:21:33.896Z,2.50
2018-01-15T23:24:04.930Z,2.30
2018-01-15T23:30:06.169Z,2.30
2018-01-15T23:32:35.577Z,2.83
2018-01-15T23:35:05.061Z,2.33
2018-01-15T23:37:34.200Z,2.10
2018-01-15T23:40:04.976Z,2.73
2018-01-15T23:42:35.249Z,2.30
2018-01-15T23:45:05.278Z,2.20
2018-01-15T23:47:35.927Z,2.17
2018-01-15T23:50:06.740Z,2.30
2018-01-15T23:52:37.105Z,2.10
2018-01-15T23:55:08.071Z,1.63
2018-01-15T23:57:38.605Z,2.17
